Terminal Aerodrome Forecast
Issued by NWS

Home | Current Version | Previous Version | Graphics & Text | Print | Product List | Glossary On
Versions: 1 2 3 4 5 6 7 8 9 10 11 12 13 14 15 16 17 18 19 20 21 22 23 24 25 26
000
FTUS43 KOAX 231010 AAA
TAFCDR
TAF AMD
KCDR 231010Z 2310/2406 VRB06KT P6SM SCT015 OVC025
      TEMPO 2310/2314 OVC015
     FM231500 14010KT 5SM BR OVC010
     FM231800 11013KT P6SM VCTS BKN015CB=

USA.gov is the U.S. government's official web portal to all federal, state and local government web resources and services.